createdAt,value
2023-01-11T00:00:32.851Z,99691.16
2023-01-11T00:03:01.040Z,99684.91
2023-01-11T00:05:28.484Z,99694.94
2023-01-11T00:07:55.793Z,99694.47
2023-01-11T00:10:23.134Z,99705.66
2023-01-11T00:12:50.221Z,99705.38
2023-01-11T00:15:17.244Z,99714.75
2023-01-11T00:17:44.263Z,99728.81
2023-01-11T00:20:11.421Z,99740.22
2023-01-11T00:22:38.419Z,99758.06
2023-01-11T00:25:05.677Z,99768.69
2023-01-11T00:27:32.794Z,99780.28
2023-01-11T00:29:59.809Z,99789.31
2023-01-11T00:32:26.987Z,99799.69
2023-01-11T00:34:54.289Z,99808.66
2023-01-11T00:37:21.401Z,99811.88
2023-01-11T00:39:48.497Z,99825.84
2023-01-11T00:42:16.024Z,99826.34
2023-01-11T00:44:43.329Z,99837.16
2023-01-11T00:47:14.191Z,99839.44
2023-01-11T00:49:42.305Z,99843.94
2023-01-11T00:52:09.837Z,99852.31
2023-01-11T00:54:37.722Z,99840.69
2023-01-11T00:57:05.460Z,99852.94
2023-01-11T00:59:32.756Z,99860.63
2023-01-11T01:01:59.774Z,99876.19
2023-01-11T01:04:26.810Z,99880.72
2023-01-11T01:06:53.835Z,99875.19
2023-01-11T01:09:20.885Z,99879.22
2023-01-11T01:11:47.868Z,99875.00
2023-01-11T01:14:15.564Z,99863.03
2023-01-11T01:16:42.631Z,99862.59
2023-01-11T01:19:09.758Z,99854.72
2023-01-11T01:21:36.962Z,99845.38
2023-01-11T01:24:04.110Z,99846.84
2023-01-11T01:26:31.479Z,99839.28
2023-01-11T01:28:58.799Z,99841.06
2023-01-11T01:31:26.261Z,99847.00
2023-01-11T01:33:53.292Z,99856.06
2023-01-11T01:36:20.491Z,99851.78
2023-01-11T01:38:48.408Z,99867.81
2023-01-11T01:41:15.830Z,99892.78
2023-01-11T01:43:47.566Z,99884.06
2023-01-11T01:46:15.335Z,99883.69
2023-01-11T01:48:43.791Z,99882.34
2023-01-11T01:51:13.394Z,99880.22
2023-01-11T01:53:45.867Z,99890.63
2023-01-11T01:56:19.375Z,99883.59
2023-01-11T01:59:07.821Z,99898.66
2023-01-11T02:01:34.889Z,99911.59
2023-01-11T02:04:05.928Z,99905.78
2023-01-11T02:06:34.081Z,99906.50
2023-01-11T02:09:04.919Z,99901.72
2023-01-11T02:11:32.873Z,99902.25
2023-01-11T02:14:02.687Z,99902.25
2023-01-11T02:16:30.220Z,99910.63
2023-01-11T02:18:59.485Z,99914.25
2023-01-11T02:21:26.502Z,99913.38
2023-01-11T02:24:12.412Z,99921.00
2023-01-11T02:26:58.324Z,99914.19
2023-01-11T02:29:28.298Z,99929.19
2023-01-11T02:31:55.278Z,99926.69
2023-01-11T02:34:42.535Z,99926.22
2023-01-11T02:37:18.653Z,99921.38
2023-01-11T02:40:03.944Z,99933.56
2023-01-11T02:42:46.921Z,99932.19
2023-01-11T02:45:17.130Z,99935.66
2023-01-11T02:47:49.670Z,99943.34
2023-01-11T02:50:20.334Z,99944.44
2023-01-11T02:52:53.471Z,99941.69
2023-01-11T02:55:25.696Z,99935.69
2023-01-11T02:57:54.413Z,99939.63
2023-01-11T03:00:22.513Z,99936.41
2023-01-11T03:03:10.158Z,99938.03
2023-01-11T03:05:40.000Z,99942.81
2023-01-11T03:08:15.059Z,99949.22
2023-01-11T03:11:00.851Z,99952.72
2023-01-11T03:13:30.981Z,99947.03
2023-01-11T03:16:16.921Z,99945.88
2023-01-11T03:19:14.006Z,99948.41
2023-01-11T03:21:47.757Z,99954.28
2023-01-11T03:24:26.787Z,99953.44
2023-01-11T03:27:02.067Z,99954.56
2023-01-11T03:29:32.040Z,99953.81
2023-01-11T03:32:05.236Z,99962.72
2023-01-11T03:34:50.637Z,99967.13
2023-01-11T03:37:23.354Z,99973.16
2023-01-11T03:39:56.095Z,99973.38
2023-01-11T03:42:24.081Z,99985.50
2023-01-11T03:44:53.540Z,99995.00
2023-01-11T03:47:23.761Z,100002.94
2023-01-11T03:50:02.837Z,100006.28
2023-01-11T03:52:34.713Z,100007.44
2023-01-11T03:55:03.396Z,100016.56
2023-01-11T03:57:32.738Z,100018.69
2023-01-11T04:00:00.149Z,100016.69
2023-01-11T04:02:33.362Z,100004.44
2023-01-11T04:05:00.446Z,100008.56
2023-01-11T04:07:27.659Z,100006.81
2023-01-11T04:09:54.759Z,100003.56
2023-01-11T04:12:21.814Z,100000.88
2023-01-11T04:14:48.804Z,100001.19
2023-01-11T04:17:16.086Z,100002.00
2023-01-11T04:19:43.181Z,100002.28
2023-01-11T04:22:10.510Z,100004.38
2023-01-11T04:24:37.868Z,99997.56
2023-01-11T04:27:05.195Z,100004.94
2023-01-11T04:29:32.265Z,100007.84
2023-01-11T04:31:59.377Z,100013.34
2023-01-11T04:34:26.962Z,100008.59
2023-01-11T04:37:10.628Z,100012.75
2023-01-11T04:39:38.047Z,100007.78
2023-01-11T04:42:05.585Z,100019.63
2023-01-11T04:44:34.534Z,100014.34
2023-01-11T04:47:02.280Z,100015.41
2023-01-11T04:49:29.982Z,100016.91
2023-01-11T04:51:57.497Z,100028.59
2023-01-11T04:54:24.977Z,100027.00
2023-01-11T04:56:52.607Z,100035.13
2023-01-11T04:59:20.362Z,100045.06
2023-01-11T05:01:48.271Z,100036.72
2023-01-11T05:04:15.949Z,100034.88
2023-01-11T05:06:44.678Z,100046.69
2023-01-11T05:09:14.303Z,100052.09
2023-01-11T05:11:41.340Z,100049.19
2023-01-11T05:14:08.480Z,100048.22
2023-01-11T05:16:35.532Z,100049.16
2023-01-11T05:19:03.499Z,100055.03
2023-01-11T05:21:32.225Z,100053.81
2023-01-11T05:24:00.936Z,100052.88
2023-01-11T05:26:29.284Z,100055.91
2023-01-11T05:28:57.254Z,100058.56
2023-01-11T05:31:27.561Z,100070.28
2023-01-11T05:34:06.616Z,100064.53
2023-01-11T05:36:36.838Z,100081.97
2023-01-11T05:39:04.613Z,100083.88
2023-01-11T05:41:31.818Z,100076.69
2023-01-11T05:43:58.773Z,100081.09
2023-01-11T05:46:26.530Z,100086.03
2023-01-11T05:48:56.619Z,100093.22
2023-01-11T05:51:23.554Z,100091.66
2023-01-11T05:53:50.599Z,100100.84
2023-01-11T05:56:17.632Z,100103.50
2023-01-11T05:58:47.121Z,100095.16
2023-01-11T06:01:14.883Z,100104.13
2023-01-11T06:03:42.820Z,100105.19
2023-01-11T06:06:10.373Z,100120.97
2023-01-11T06:08:37.875Z,100118.59
2023-01-11T06:11:04.907Z,100117.19
2023-01-11T06:13:31.906Z,100123.75
2023-01-11T06:15:58.929Z,100124.91
2023-01-11T06:18:46.571Z,100131.34
2023-01-11T06:21:32.996Z,100129.41
2023-01-11T06:24:19.451Z,100137.75
2023-01-11T06:27:05.815Z,100138.34
2023-01-11T06:29:52.139Z,100146.38
2023-01-11T06:32:38.509Z,100154.75
2023-01-11T06:35:05.779Z,100157.41
2023-01-11T06:37:32.772Z,100156.50
2023-01-11T06:39:59.997Z,100162.22
2023-01-11T06:42:27.177Z,100166.22
2023-01-11T06:44:54.134Z,100163.75
2023-01-11T06:47:21.114Z,100168.38
2023-01-11T06:49:48.122Z,100177.34
2023-01-11T06:52:15.068Z,100173.13
2023-01-11T06:54:42.068Z,100174.59
2023-01-11T06:57:09.124Z,100175.91
2023-01-11T06:59:36.101Z,100174.59
2023-01-11T07:02:03.262Z,100195.22
2023-01-11T07:04:30.313Z,100183.19
2023-01-11T07:06:57.329Z,100185.97
2023-01-11T07:09:24.436Z,100194.31
2023-01-11T07:11:51.385Z,100191.03
2023-01-11T07:14:18.348Z,100196.38
2023-01-11T07:16:45.967Z,100205.22
2023-01-11T07:19:13.185Z,100208.50
2023-01-11T07:21:40.195Z,100216.84
2023-01-11T07:24:07.189Z,100221.72
2023-01-11T07:26:34.147Z,100228.75
2023-01-11T07:29:01.069Z,100225.38
2023-01-11T07:31:28.064Z,100234.13
2023-01-11T07:33:55.396Z,100230.16
2023-01-11T07:36:22.354Z,100235.38
2023-01-11T07:38:49.340Z,100236.41
2023-01-11T07:41:17.145Z,100237.09
2023-01-11T07:43:44.114Z,100243.56
2023-01-11T07:46:11.365Z,100249.19
2023-01-11T07:48:38.443Z,100255.44
2023-01-11T07:51:05.460Z,100256.13
2023-01-11T07:53:32.415Z,100271.66
2023-01-11T07:55:59.427Z,100278.25
2023-01-11T07:58:26.381Z,100279.38
2023-01-11T08:00:53.416Z,100274.06
2023-01-11T08:03:20.717Z,100281.56
2023-01-11T08:05:51.285Z,100286.16
2023-01-11T08:08:18.340Z,100286.84
2023-01-11T08:10:45.288Z,100293.03
2023-01-11T08:13:13.266Z,100294.19
2023-01-11T08:15:43.734Z,100296.38
2023-01-11T08:18:11.898Z,100308.59
2023-01-11T08:20:39.717Z,100314.22
2023-01-11T08:23:09.016Z,100320.81
2023-01-11T08:25:36.823Z,100322.16
2023-01-11T08:28:04.787Z,100317.53
2023-01-11T08:30:35.477Z,100316.50
2023-01-11T08:33:05.458Z,100328.81
2023-01-11T08:35:36.778Z,100326.47
2023-01-11T08:38:03.819Z,100327.19
2023-01-11T08:40:30.748Z,100336.19
2023-01-11T08:43:15.577Z,100338.84
2023-01-11T08:46:00.451Z,100338.75
2023-01-11T08:48:46.316Z,100339.22
2023-01-11T08:51:31.210Z,100346.19
2023-01-11T08:54:16.644Z,100341.03
2023-01-11T08:57:01.370Z,100340.53
2023-01-11T08:59:46.568Z,100339.78
2023-01-11T09:02:31.659Z,100333.91
2023-01-11T09:05:18.247Z,100334.97
2023-01-11T09:08:03.146Z,100345.84
2023-01-11T09:10:47.973Z,100348.69
2023-01-11T09:13:32.652Z,100353.16
2023-01-11T09:16:17.410Z,100344.44
2023-01-11T09:19:02.078Z,100340.28
2023-01-11T09:21:47.262Z,100342.88
2023-01-11T09:24:32.826Z,100345.03
2023-01-11T09:27:17.931Z,100353.00
2023-01-11T09:30:03.777Z,100353.00
2023-01-11T09:32:49.245Z,100350.88
2023-01-11T09:35:34.385Z,100339.97
2023-01-11T09:38:19.256Z,100343.66
2023-01-11T09:41:13.369Z,100351.03
2023-01-11T09:44:09.601Z,100356.06
2023-01-11T09:46:57.057Z,100364.88
2023-01-11T09:49:44.429Z,100361.88
2023-01-11T09:52:31.106Z,100357.56
2023-01-11T09:55:17.466Z,100361.16
2023-01-11T09:58:05.312Z,100365.25
2023-01-11T10:00:50.040Z,100364.38
2023-01-11T10:03:38.315Z,100365.03
2023-01-11T10:06:29.137Z,100365.41
2023-01-11T10:18:28.732Z,100379.63
2023-01-11T10:22:08.265Z,100379.50
2023-01-11T10:25:01.531Z,100387.59
2023-01-11T10:27:52.031Z,100394.75
2023-01-11T10:30:41.720Z,100389.75
2023-01-11T10:33:25.030Z,100402.41
2023-01-11T10:35:59.446Z,100399.84
2023-01-11T10:38:30.454Z,100408.66
2023-01-11T10:41:04.280Z,100398.72
2023-01-11T10:43:33.996Z,100409.47
2023-01-11T10:46:15.403Z,100404.88
2023-01-11T10:48:43.870Z,100406.44
2023-01-11T10:51:32.650Z,100412.91
2023-01-11T10:57:03.278Z,100410.72
2023-01-11T10:59:44.965Z,100415.97
2023-01-11T11:02:26.212Z,100420.09
2023-01-11T11:04:54.112Z,100416.41
2023-01-11T11:07:29.087Z,100409.84
2023-01-11T11:10:15.135Z,100419.97
2023-01-11T11:12:53.152Z,100408.97
2023-01-11T11:15:27.439Z,100415.09
2023-01-11T11:17:56.396Z,100411.19
2023-01-11T11:20:28.817Z,100407.84
2023-01-11T11:22:56.419Z,100414.41
2023-01-11T11:25:28.714Z,100411.41
2023-01-11T11:28:00.593Z,100406.66
2023-01-11T11:30:34.171Z,100415.47
2023-01-11T11:33:02.504Z,100417.28
2023-01-11T11:35:32.619Z,100415.97
2023-01-11T11:38:04.801Z,100426.50
2023-01-11T11:40:36.652Z,100422.03
2023-01-11T11:43:16.706Z,100436.00
2023-01-11T11:45:55.090Z,100430.22
2023-01-11T11:48:22.972Z,100440.00
2023-01-11T11:50:53.886Z,100436.56
2023-01-11T11:53:27.046Z,100441.31
2023-01-11T11:55:54.845Z,100440.28
2023-01-11T11:58:23.993Z,100444.06
2023-01-11T12:00:52.430Z,100439.31
2023-01-11T12:03:28.417Z,100444.19
2023-01-11T12:06:00.678Z,100435.28
2023-01-11T12:08:34.132Z,100449.00
2023-01-11T12:11:03.707Z,100441.53
2023-01-11T12:13:36.818Z,100446.94
2023-01-11T12:16:18.397Z,100442.91
2023-01-11T12:18:46.303Z,100446.72
2023-01-11T12:21:23.878Z,100443.47
2023-01-11T12:24:07.800Z,100443.00
2023-01-11T12:26:58.472Z,100439.47
2023-01-11T12:29:25.679Z,100447.50
2023-01-11T12:31:59.067Z,100446.38
2023-01-11T12:34:26.026Z,100449.81
2023-01-11T12:37:16.068Z,100448.78
2023-01-11T12:39:53.939Z,100446.25
2023-01-11T12:42:20.907Z,100452.63
2023-01-11T12:45:08.692Z,100450.97
2023-01-11T12:47:59.203Z,100447.41
2023-01-11T12:50:29.807Z,100448.69
2023-01-11T12:53:00.108Z,100447.97
2023-01-11T12:56:09.040Z,100453.63
2023-01-11T12:58:40.378Z,100459.97
2023-01-11T13:01:27.736Z,100464.81
2023-01-11T13:04:12.274Z,100467.72
2023-01-11T13:06:58.570Z,100476.16
2023-01-11T13:09:34.706Z,100473.59
2023-01-11T13:12:24.765Z,100487.53
2023-01-11T13:15:10.381Z,100485.13
2023-01-11T13:17:41.499Z,100476.03
2023-01-11T13:20:27.164Z,100483.75
2023-01-11T13:22:57.989Z,100486.97
2023-01-11T13:25:30.439Z,100491.97
2023-01-11T13:28:00.201Z,100489.84
2023-01-11T13:30:28.253Z,100490.94
2023-01-11T13:33:02.384Z,100504.97
2023-01-11T13:35:39.967Z,100507.53
2023-01-11T13:38:15.592Z,100509.84
2023-01-11T13:40:46.275Z,100508.34
2023-01-11T13:43:16.368Z,100512.50
2023-01-11T13:45:46.306Z,100516.50
2023-01-11T13:48:26.310Z,100521.81
2023-01-11T13:50:56.491Z,100526.91
2023-01-11T13:53:39.097Z,100534.75
2023-01-11T13:56:28.221Z,100518.69
2023-01-11T13:58:58.230Z,100523.06
2023-01-11T14:01:48.370Z,100518.69
2023-01-11T14:04:30.975Z,100533.63
2023-01-11T14:07:05.454Z,100532.09
2023-01-11T14:09:53.730Z,100540.75
2023-01-11T14:12:38.200Z,100546.38
2023-01-11T14:15:23.944Z,100551.66
2023-01-11T14:17:57.174Z,100551.44
2023-01-11T14:20:40.673Z,100545.69
2023-01-11T14:23:12.236Z,100549.41
2023-01-11T14:25:42.338Z,100560.97
2023-01-11T14:28:12.088Z,100561.19
2023-01-11T14:30:41.993Z,100558.44
2023-01-11T14:33:35.862Z,100563.56
2023-01-11T14:36:02.828Z,100561.69
2023-01-11T14:38:29.879Z,100573.44
2023-01-11T14:41:05.883Z,100572.28
2023-01-11T14:43:51.360Z,100577.63
2023-01-11T14:46:37.764Z,100584.50
2023-01-11T14:49:18.191Z,100590.44
2023-01-11T14:51:45.169Z,100589.47
2023-01-11T14:54:12.112Z,100578.22
2023-01-11T14:56:42.323Z,100589.50
2023-01-11T14:59:24.334Z,100595.09
2023-01-11T15:02:11.568Z,100598.31
2023-01-11T15:04:58.645Z,100600.31
2023-01-11T15:07:29.652Z,100611.00
2023-01-11T15:09:57.813Z,100605.97
2023-01-11T15:12:35.767Z,100616.00
2023-01-11T15:15:07.501Z,100615.44
2023-01-11T15:17:34.665Z,100629.44
2023-01-11T15:20:12.683Z,100636.97
2023-01-11T15:22:39.984Z,100622.44
2023-01-11T15:25:18.914Z,100633.16
2023-01-11T15:27:46.398Z,100638.34
2023-01-11T15:30:39.632Z,100634.00
2023-01-11T15:33:19.250Z,100645.72
2023-01-11T15:35:55.729Z,100645.56
2023-01-11T15:38:43.910Z,100652.34
2023-01-11T15:41:14.311Z,100645.50
2023-01-11T15:43:54.396Z,100651.66
2023-01-11T15:46:30.596Z,100666.09
2023-01-11T15:49:08.000Z,100664.56
2023-01-11T15:51:53.885Z,100663.31
2023-01-11T15:54:23.861Z,100667.06
2023-01-11T15:57:09.399Z,100667.63
2023-01-11T15:59:42.561Z,100668.00
2023-01-11T16:02:15.606Z,100678.16
2023-01-11T16:04:45.483Z,100677.31
2023-01-11T16:07:22.010Z,100682.13
2023-01-11T16:10:24.440Z,100678.06
2023-01-11T16:13:11.709Z,100673.84
2023-01-11T16:15:38.720Z,100687.97
2023-01-11T16:18:16.827Z,100695.63
2023-01-11T16:20:45.703Z,100691.81
2023-01-11T16:23:18.815Z,100692.28
2023-01-11T16:25:46.768Z,100693.38
2023-01-11T16:28:15.541Z,100702.41
2023-01-11T16:30:42.748Z,100714.78
2023-01-11T16:33:13.858Z,100711.41
2023-01-11T16:35:41.046Z,100715.28
2023-01-11T16:38:14.345Z,100717.59
2023-01-11T16:40:43.023Z,100712.34
2023-01-11T16:43:30.203Z,100719.00
2023-01-11T16:45:57.242Z,100725.13
2023-01-11T16:48:30.328Z,100724.97
2023-01-11T16:51:05.956Z,100727.47
2023-01-11T16:53:33.899Z,100729.41
2023-01-11T16:56:04.072Z,100731.28
2023-01-11T16:58:32.518Z,100735.31
2023-01-11T17:01:02.484Z,100737.94
2023-01-11T17:03:30.727Z,100737.25
2023-01-11T17:05:57.980Z,100740.31
2023-01-11T17:08:35.379Z,100741.16
2023-01-11T17:11:22.145Z,100746.34
2023-01-11T17:13:49.123Z,100751.41
2023-01-11T17:16:16.921Z,100741.31
2023-01-11T17:18:44.199Z,100750.13
2023-01-11T17:21:37.413Z,100757.16
2023-01-11T17:24:05.962Z,100750.78
2023-01-11T17:26:45.108Z,100756.75
2023-01-11T17:29:16.456Z,100749.75
2023-01-11T17:31:43.681Z,100765.91
2023-01-11T17:34:18.553Z,100751.00
2023-01-11T17:36:46.247Z,100756.22
2023-01-11T17:39:24.430Z,100753.00
2023-01-11T17:41:51.505Z,100753.13
2023-01-11T17:44:19.534Z,100745.69
2023-01-11T17:46:46.791Z,100756.63
2023-01-11T17:49:32.465Z,100761.38
2023-01-11T17:52:18.427Z,100765.16
2023-01-11T17:54:45.956Z,100759.47
2023-01-11T17:57:13.548Z,100764.00
2023-01-11T17:59:40.972Z,100773.03
2023-01-11T18:02:12.989Z,100759.28
2023-01-11T18:04:40.355Z,100772.13
2023-01-11T18:07:16.611Z,100769.56
2023-01-11T18:09:48.509Z,100758.00
2023-01-11T18:12:22.961Z,100759.97
2023-01-11T18:14:49.951Z,100768.91
2023-01-11T18:17:32.297Z,100772.75
2023-01-11T18:20:00.100Z,100765.03
2023-01-11T18:22:34.492Z,100773.03
2023-01-11T18:25:02.202Z,100774.56
2023-01-11T18:27:38.293Z,100770.94
2023-01-11T18:30:06.016Z,100779.22
2023-01-11T18:32:40.653Z,100778.94
2023-01-11T18:35:18.634Z,100779.28
2023-01-11T18:37:46.290Z,100771.91
2023-01-11T18:40:13.762Z,100784.94
2023-01-11T18:42:40.739Z,100780.09
2023-01-11T18:45:10.917Z,100788.19
2023-01-11T18:47:38.313Z,100782.91
2023-01-11T18:50:06.053Z,100787.75
2023-01-11T18:52:32.988Z,100790.78
2023-01-11T18:55:00.118Z,100793.00
2023-01-11T18:57:27.232Z,100796.28
2023-01-11T18:59:55.243Z,100801.81
2023-01-11T19:02:25.227Z,100804.88
2023-01-11T19:04:56.798Z,100802.88
2023-01-11T19:07:25.400Z,100807.56
2023-01-11T19:09:57.422Z,100799.84
2023-01-11T19:12:24.646Z,100807.00
2023-01-11T19:14:51.697Z,100808.00
2023-01-11T19:17:19.106Z,100803.31
2023-01-11T19:19:46.236Z,100799.47
2023-01-11T19:22:13.542Z,100811.44
2023-01-11T19:24:40.559Z,100807.38
2023-01-11T19:27:07.636Z,100815.09
2023-01-11T19:29:34.667Z,100815.50
2023-01-11T19:32:01.706Z,100817.13
2023-01-11T19:34:28.700Z,100813.88
2023-01-11T19:36:55.669Z,100817.94
2023-01-11T19:39:22.663Z,100815.91
2023-01-11T19:41:49.622Z,100817.53
2023-01-11T19:44:16.614Z,100822.00
2023-01-11T19:46:43.938Z,100821.59
2023-01-11T19:49:10.899Z,100820.19
2023-01-11T19:51:37.871Z,100824.19
2023-01-11T19:54:04.847Z,100827.03
2023-01-11T19:56:31.933Z,100832.72
2023-01-11T19:58:59.918Z,100826.81
2023-01-11T20:01:26.915Z,100834.34
2023-01-11T20:03:53.905Z,100828.69
2023-01-11T20:06:20.909Z,100839.59
2023-01-11T20:08:47.946Z,100827.03
2023-01-11T20:11:15.481Z,100833.34
2023-01-11T20:13:45.215Z,100842.09
2023-01-11T20:16:13.067Z,100850.78
2023-01-11T20:18:40.380Z,100842.03
2023-01-11T20:21:07.379Z,100840.22
2023-01-11T20:23:34.351Z,100840.25
2023-01-11T20:26:02.351Z,100842.28
2023-01-11T20:28:29.791Z,100846.72
2023-01-11T20:31:02.111Z,100845.94
2023-01-11T20:33:29.405Z,100850.81
2023-01-11T20:35:56.653Z,100851.63
2023-01-11T20:38:24.388Z,100854.06
2023-01-11T20:40:51.318Z,100850.38
2023-01-11T20:43:18.290Z,100855.88
2023-01-11T20:45:53.920Z,100843.31
2023-01-11T20:48:20.980Z,100848.19
2023-01-11T20:50:47.963Z,100844.31
2023-01-11T20:53:14.941Z,100852.44
2023-01-11T20:55:41.915Z,100847.59
2023-01-11T20:58:08.907Z,100847.97
2023-01-11T21:00:35.849Z,100850.19
2023-01-11T21:03:02.920Z,100852.44
2023-01-11T21:05:29.939Z,100840.88
2023-01-11T21:07:56.947Z,100843.94
2023-01-11T21:10:23.909Z,100846.34
2023-01-11T21:12:50.880Z,100851.44
2023-01-11T21:15:17.881Z,100843.50
2023-01-11T21:17:44.928Z,100844.53
2023-01-11T21:20:12.088Z,100852.66
2023-01-11T21:22:39.123Z,100864.81
2023-01-11T21:25:06.599Z,100867.69
2023-01-11T21:27:37.213Z,100855.88
2023-01-11T21:30:07.404Z,100849.22
2023-01-11T21:32:34.393Z,100844.13
2023-01-11T21:35:01.353Z,100854.66
2023-01-11T21:37:28.349Z,100861.13
2023-01-11T21:39:55.352Z,100852.44
2023-01-11T21:42:22.327Z,100848.56
2023-01-11T21:44:49.261Z,100853.84
2023-01-11T21:47:16.240Z,100863.34
2023-01-11T21:49:43.372Z,100867.38
2023-01-11T21:52:10.540Z,100855.63
2023-01-11T21:54:37.554Z,100862.19
2023-01-11T21:57:04.625Z,100863.75
2023-01-11T21:59:31.623Z,100868.56
2023-01-11T22:01:58.599Z,100861.72
2023-01-11T22:04:25.829Z,100862.09
2023-01-11T22:06:52.846Z,100861.63
2023-01-11T22:09:20.236Z,100843.66
2023-01-11T22:11:48.308Z,100855.53
2023-01-11T22:14:23.294Z,100858.28
2023-01-11T22:16:50.881Z,100863.38
2023-01-11T22:19:18.142Z,100861.31
2023-01-11T22:21:45.283Z,100855.06
2023-01-11T22:24:12.255Z,100851.00
2023-01-11T22:26:39.853Z,100851.47
2023-01-11T22:29:07.611Z,100849.84
2023-01-11T22:31:34.771Z,100849.00
2023-01-11T22:34:01.883Z,100847.44
2023-01-11T22:36:29.324Z,100847.84
2023-01-11T22:38:57.123Z,100836.28
2023-01-11T22:41:25.208Z,100829.16
2023-01-11T22:43:53.131Z,100819.28
2023-01-11T22:46:21.563Z,100826.41
2023-01-11T22:48:48.716Z,100828.84
2023-01-11T22:51:16.723Z,100824.16
2023-01-11T22:53:44.636Z,100817.84
2023-01-11T22:56:12.428Z,100828.38
2023-01-11T22:58:39.537Z,100829.22
2023-01-11T23:01:10.474Z,100822.34
2023-01-11T23:03:37.999Z,100829.25
2023-01-11T23:06:07.773Z,100825.19
2023-01-11T23:08:38.871Z,100832.91
2023-01-11T23:11:07.142Z,100828.00
2023-01-11T23:13:34.128Z,100830.84
2023-01-11T23:16:01.245Z,100819.31
2023-01-11T23:18:28.209Z,100826.59
2023-01-11T23:20:55.241Z,100826.44
2023-01-11T23:23:22.384Z,100826.41
2023-01-11T23:25:53.491Z,100826.66
2023-01-11T23:28:20.449Z,100821.38
2023-01-11T23:30:47.388Z,100834.53
2023-01-11T23:33:14.527Z,100823.59
2023-01-11T23:35:41.502Z,100818.69
2023-01-11T23:38:08.436Z,100821.19
2023-01-11T23:40:35.667Z,100816.72
2023-01-11T23:43:03.287Z,100812.63
2023-01-11T23:45:30.455Z,100820.34
2023-01-11T23:47:57.480Z,100807.78
2023-01-11T23:50:24.405Z,100813.03
2023-01-11T23:52:51.317Z,100804.72
2023-01-11T23:55:18.289Z,100807.56
2023-01-11T23:57:45.231Z,100802.28
